sensor_id;sensor_type;location;lat;lon;timestamp;temperature;humidity
1526;DHT22;756;49.982;8.240;2022-09-16T00:00:24;16.50;74.40
1526;DHT22;756;49.982;8.240;2022-09-16T00:02:51;16.60;73.90
1526;DHT22;756;49.982;8.240;2022-09-16T00:05:18;16.60;74.10
1526;DHT22;756;49.982;8.240;2022-09-16T00:07:45;16.60;74.20
1526;DHT22;756;49.982;8.240;2022-09-16T00:10:12;16.50;74.10
1526;DHT22;756;49.982;8.240;2022-09-16T00:12:40;16.60;73.70
1526;DHT22;756;49.982;8.240;2022-09-16T00:15:07;16.50;74.70
1526;DHT22;756;49.982;8.240;2022-09-16T00:17:35;16.50;75.00
1526;DHT22;756;49.982;8.240;2022-09-16T00:20:04;16.40;74.90
1526;DHT22;756;49.982;8.240;2022-09-16T00:22:31;16.40;75.30
1526;DHT22;756;49.982;8.240;2022-09-16T00:24:58;16.40;75.10
1526;DHT22;756;49.982;8.240;2022-09-16T00:27:25;16.40;75.30
1526;DHT22;756;49.982;8.240;2022-09-16T00:29:52;16.40;75.60
1526;DHT22;756;49.982;8.240;2022-09-16T00:32:19;16.40;74.80
1526;DHT22;756;49.982;8.240;2022-09-16T00:34:46;16.40;74.90
1526;DHT22;756;49.982;8.240;2022-09-16T00:37:12;16.40;75.10
1526;DHT22;756;49.982;8.240;2022-09-16T00:39:39;16.30;75.00
1526;DHT22;756;49.982;8.240;2022-09-16T00:42:10;16.40;75.00
1526;DHT22;756;49.982;8.240;2022-09-16T00:45:01;16.40;75.10
1526;DHT22;756;49.982;8.240;2022-09-16T00:47:30;16.40;75.10
1526;DHT22;756;49.982;8.240;2022-09-16T00:50:03;16.30;75.40
1526;DHT22;756;49.982;8.240;2022-09-16T00:52:32;16.30;75.50
1526;DHT22;756;49.982;8.240;2022-09-16T00:55:01;16.30;75.20
1526;DHT22;756;49.982;8.240;2022-09-16T00:57:29;16.30;74.90
1526;DHT22;756;49.982;8.240;2022-09-16T00:59:56;16.30;74.80
1526;DHT22;756;49.982;8.240;2022-09-16T01:02:23;16.30;74.60
1526;DHT22;756;49.982;8.240;2022-09-16T01:07:47;16.30;74.60
1526;DHT22;756;49.982;8.240;2022-09-16T01:10:21;16.30;74.60
1526;DHT22;756;49.982;8.240;2022-09-16T01:13:04;16.30;74.40
1526;DHT22;756;49.982;8.240;2022-09-16T01:18:16;16.20;74.90
1526;DHT22;756;49.982;8.240;2022-09-16T01:23:40;16.20;75.10
1526;DHT22;756;49.982;8.240;2022-09-16T01:26:32;16.20;75.00
1526;DHT22;756;49.982;8.240;2022-09-16T01:43:22;16.00;74.40
1526;DHT22;756;49.982;8.240;2022-09-16T01:45:59;16.00;74.50
1526;DHT22;756;49.982;8.240;2022-09-16T01:48:59;16.00;74.70
1526;DHT22;756;49.982;8.240;2022-09-16T01:51:40;16.00;74.80
1526;DHT22;756;49.982;8.240;2022-09-16T01:54:12;16.00;74.30
1526;DHT22;756;49.982;8.240;2022-09-16T01:57:01;16.00;73.90
1526;DHT22;756;49.982;8.240;2022-09-16T01:59:37;16.00;73.90
1526;DHT22;756;49.982;8.240;2022-09-16T02:02:17;16.10;73.50
1526;DHT22;756;49.982;8.240;2022-09-16T02:04:50;16.00;73.50
1526;DHT22;756;49.982;8.240;2022-09-16T02:07:21;16.00;73.30
1526;DHT22;756;49.982;8.240;2022-09-16T02:09:53;16.00;73.60
1526;DHT22;756;49.982;8.240;2022-09-16T02:12:29;15.90;73.20
1526;DHT22;756;49.982;8.240;2022-09-16T02:15:02;15.90;73.00
1526;DHT22;756;49.982;8.240;2022-09-16T02:17:34;15.90;73.10
1526;DHT22;756;49.982;8.240;2022-09-16T02:20:09;15.90;73.20
1526;DHT22;756;49.982;8.240;2022-09-16T02:22:46;15.90;73.10
1526;DHT22;756;49.982;8.240;2022-09-16T02:25:16;15.90;73.40
1526;DHT22;756;49.982;8.240;2022-09-16T02:27:45;15.90;73.50
1526;DHT22;756;49.982;8.240;2022-09-16T02:30:18;15.90;73.40
1526;DHT22;756;49.982;8.240;2022-09-16T02:32:49;15.90;73.70
1526;DHT22;756;49.982;8.240;2022-09-16T02:35:19;15.90;74.00
1526;DHT22;756;49.982;8.240;2022-09-16T02:38:25;15.90;73.80
1526;DHT22;756;49.982;8.240;2022-09-16T02:40:59;15.80;74.10
1526;DHT22;756;49.982;8.240;2022-09-16T02:43:27;15.80;73.90
1526;DHT22;756;49.982;8.240;2022-09-16T02:51:19;15.90;74.30
1526;DHT22;756;49.982;8.240;2022-09-16T02:54:20;15.80;75.10
1526;DHT22;756;49.982;8.240;2022-09-16T02:56:49;15.80;74.80
1526;DHT22;756;49.982;8.240;2022-09-16T02:59:16;15.70;75.20
1526;DHT22;756;49.982;8.240;2022-09-16T03:01:45;15.60;75.90
1526;DHT22;756;49.982;8.240;2022-09-16T03:04:15;15.60;77.30
1526;DHT22;756;49.982;8.240;2022-09-16T03:06:43;15.70;76.60
1526;DHT22;756;49.982;8.240;2022-09-16T03:09:12;15.70;77.00
1526;DHT22;756;49.982;8.240;2022-09-16T03:30:25;15.60;78.00
1526;DHT22;756;49.982;8.240;2022-09-16T03:32:54;15.60;77.90
1526;DHT22;756;49.982;8.240;2022-09-16T03:35:32;15.70;77.80
1526;DHT22;756;49.982;8.240;2022-09-16T03:38:00;15.70;77.80
1526;DHT22;756;49.982;8.240;2022-09-16T03:40:28;15.70;78.00
1526;DHT22;756;49.982;8.240;2022-09-16T03:42:57;15.70;78.00
1526;DHT22;756;49.982;8.240;2022-09-16T03:45:23;15.70;78.10
1526;DHT22;756;49.982;8.240;2022-09-16T03:47:51;15.70;78.40
1526;DHT22;756;49.982;8.240;2022-09-16T03:50:19;15.70;77.90
1526;DHT22;756;49.982;8.240;2022-09-16T03:52:46;15.70;78.00
1526;DHT22;756;49.982;8.240;2022-09-16T03:55:13;15.60;78.20
1526;DHT22;756;49.982;8.240;2022-09-16T03:57:42;15.40;78.60
1526;DHT22;756;49.982;8.240;2022-09-16T04:00:09;15.40;79.00
1526;DHT22;756;49.982;8.240;2022-09-16T04:02:36;15.40;79.40
1526;DHT22;756;49.982;8.240;2022-09-16T04:05:03;15.40;79.80
1526;DHT22;756;49.982;8.240;2022-09-16T04:07:31;15.50;79.60
1526;DHT22;756;49.982;8.240;2022-09-16T04:09:59;15.60;79.20
1526;DHT22;756;49.982;8.240;2022-09-16T04:12:27;15.60;79.10
1526;DHT22;756;49.982;8.240;2022-09-16T04:14:56;15.70;79.40
1526;DHT22;756;49.982;8.240;2022-09-16T04:17:22;15.60;79.70
1526;DHT22;756;49.982;8.240;2022-09-16T04:19:49;15.60;79.50
1526;DHT22;756;49.982;8.240;2022-09-16T04:22:18;15.60;79.60
1526;DHT22;756;49.982;8.240;2022-09-16T04:24:45;15.60;79.40
1526;DHT22;756;49.982;8.240;2022-09-16T04:27:11;15.50;79.30
1526;DHT22;756;49.982;8.240;2022-09-16T04:29:38;15.40;80.20
1526;DHT22;756;49.982;8.240;2022-09-16T04:32:04;15.50;80.20
1526;DHT22;756;49.982;8.240;2022-09-16T04:34:31;15.50;80.20
1526;DHT22;756;49.982;8.240;2022-09-16T04:36:58;15.50;80.30
1526;DHT22;756;49.982;8.240;2022-09-16T04:39:25;15.50;80.50
1526;DHT22;756;49.982;8.240;2022-09-16T04:41:52;15.50;80.10
1526;DHT22;756;49.982;8.240;2022-09-16T04:44:18;15.60;79.60
1526;DHT22;756;49.982;8.240;2022-09-16T04:46:45;15.50;79.50
1526;DHT22;756;49.982;8.240;2022-09-16T04:49:12;15.50;79.70
1526;DHT22;756;49.982;8.240;2022-09-16T04:51:39;15.50;79.60
1526;DHT22;756;49.982;8.240;2022-09-16T04:54:05;15.60;79.40
1526;DHT22;756;49.982;8.240;2022-09-16T04:56:32;15.60;79.30
1526;DHT22;756;49.982;8.240;2022-09-16T04:59:00;15.60;79.10
1526;DHT22;756;49.982;8.240;2022-09-16T05:01:30;15.50;79.40
1526;DHT22;756;49.982;8.240;2022-09-16T05:03:59;15.50;78.90
1526;DHT22;756;49.982;8.240;2022-09-16T05:06:32;15.50;79.40
1526;DHT22;756;49.982;8.240;2022-09-16T05:08:59;15.50;79.30
1526;DHT22;756;49.982;8.240;2022-09-16T05:11:29;15.50;79.20
1526;DHT22;756;49.982;8.240;2022-09-16T05:14:00;15.50;79.20
1526;DHT22;756;49.982;8.240;2022-09-16T05:16:27;15.50;79.00
1526;DHT22;756;49.982;8.240;2022-09-16T05:18:59;15.50;79.20
1526;DHT22;756;49.982;8.240;2022-09-16T05:21:27;15.50;79.30
1526;DHT22;756;49.982;8.240;2022-09-16T05:23:54;15.60;79.20
1526;DHT22;756;49.982;8.240;2022-09-16T05:26:26;15.50;79.20
1526;DHT22;756;49.982;8.240;2022-09-16T05:28:53;15.60;79.40
1526;DHT22;756;49.982;8.240;2022-09-16T05:31:22;15.60;78.90
1526;DHT22;756;49.982;8.240;2022-09-16T05:34:00;15.60;78.90
1526;DHT22;756;49.982;8.240;2022-09-16T05:36:29;15.60;79.20
1526;DHT22;756;49.982;8.240;2022-09-16T05:38:56;15.60;79.20
1526;DHT22;756;49.982;8.240;2022-09-16T05:41:43;15.50;79.30
1526;DHT22;756;49.982;8.240;2022-09-16T05:44:10;15.50;79.10
1526;DHT22;756;49.982;8.240;2022-09-16T05:46:38;15.50;79.00
1526;DHT22;756;49.982;8.240;2022-09-16T05:49:08;15.60;78.90
1526;DHT22;756;49.982;8.240;2022-09-16T05:51:36;15.50;79.00
1526;DHT22;756;49.982;8.240;2022-09-16T05:54:04;15.60;79.20
1526;DHT22;756;49.982;8.240;2022-09-16T05:56:30;15.50;79.30
1526;DHT22;756;49.982;8.240;2022-09-16T05:58:58;15.50;79.40
1526;DHT22;756;49.982;8.240;2022-09-16T06:01:33;15.50;79.50
1526;DHT22;756;49.982;8.240;2022-09-16T06:04:03;15.50;79.50
1526;DHT22;756;49.982;8.240;2022-09-16T06:06:35;15.50;79.40
1526;DHT22;756;49.982;8.240;2022-09-16T06:09:09;15.50;79.80
1526;DHT22;756;49.982;8.240;2022-09-16T06:11:42;15.50;79.70
1526;DHT22;756;49.982;8.240;2022-09-16T06:14:10;15.60;79.20
1526;DHT22;756;49.982;8.240;2022-09-16T06:16:37;15.60;79.30
1526;DHT22;756;49.982;8.240;2022-09-16T06:19:06;15.60;79.00
1526;DHT22;756;49.982;8.240;2022-09-16T06:21:36;15.60;78.60
1526;DHT22;756;49.982;8.240;2022-09-16T06:24:04;15.70;78.50
1526;DHT22;756;49.982;8.240;2022-09-16T06:26:36;15.60;78.40
1526;DHT22;756;49.982;8.240;2022-09-16T06:29:03;15.60;78.00
1526;DHT22;756;49.982;8.240;2022-09-16T06:31:33;15.60;78.40
1526;DHT22;756;49.982;8.240;2022-09-16T06:33:59;15.60;78.10
1526;DHT22;756;49.982;8.240;2022-09-16T06:36:28;15.70;78.40
1526;DHT22;756;49.982;8.240;2022-09-16T06:38:55;15.70;78.30
1526;DHT22;756;49.982;8.240;2022-09-16T06:41:23;15.70;78.50
1526;DHT22;756;49.982;8.240;2022-09-16T06:43:50;15.60;78.40
1526;DHT22;756;49.982;8.240;2022-09-16T06:46:22;15.60;78.60
1526;DHT22;756;49.982;8.240;2022-09-16T06:48:52;15.70;78.40
1526;DHT22;756;49.982;8.240;2022-09-16T06:51:21;15.70;78.40
1526;DHT22;756;49.982;8.240;2022-09-16T06:53:49;15.70;78.10
1526;DHT22;756;49.982;8.240;2022-09-16T06:56:18;15.70;78.30
1526;DHT22;756;49.982;8.240;2022-09-16T06:58:47;15.70;78.60
1526;DHT22;756;49.982;8.240;2022-09-16T07:01:20;15.70;78.50
1526;DHT22;756;49.982;8.240;2022-09-16T07:03:49;15.70;78.30
1526;DHT22;756;49.982;8.240;2022-09-16T07:06:17;15.70;77.90
1526;DHT22;756;49.982;8.240;2022-09-16T07:08:45;15.80;76.90
1526;DHT22;756;49.982;8.240;2022-09-16T07:11:20;15.80;76.60
1526;DHT22;756;49.982;8.240;2022-09-16T07:13:48;15.90;76.40
1526;DHT22;756;49.982;8.240;2022-09-16T07:16:21;15.80;76.60
1526;DHT22;756;49.982;8.240;2022-09-16T07:18:52;15.80;76.80
1526;DHT22;756;49.982;8.240;2022-09-16T07:21:27;15.80;77.00
1526;DHT22;756;49.982;8.240;2022-09-16T07:23:57;15.80;76.90
1526;DHT22;756;49.982;8.240;2022-09-16T07:26:32;15.90;76.50
1526;DHT22;756;49.982;8.240;2022-09-16T07:29:01;15.90;76.60
1526;DHT22;756;49.982;8.240;2022-09-16T07:31:31;16.00;75.70
1526;DHT22;756;49.982;8.240;2022-09-16T07:33:58;16.00;73.80
1526;DHT22;756;49.982;8.240;2022-09-16T07:36:33;16.10;73.40
1526;DHT22;756;49.982;8.240;2022-09-16T07:39:00;16.10;73.80
1526;DHT22;756;49.982;8.240;2022-09-16T07:41:29;16.10;73.30
1526;DHT22;756;49.982;8.240;2022-09-16T07:43:58;16.10;71.60
1526;DHT22;756;49.982;8.240;2022-09-16T07:46:29;16.10;72.40
1526;DHT22;756;49.982;8.240;2022-09-16T07:48:57;16.20;72.50
1526;DHT22;756;49.982;8.240;2022-09-16T07:51:25;16.20;71.50
1526;DHT22;756;49.982;8.240;2022-09-16T07:53:54;16.30;70.80
1526;DHT22;756;49.982;8.240;2022-09-16T07:56:22;16.40;70.10
1526;DHT22;756;49.982;8.240;2022-09-16T07:58:52;16.50;69.80
1526;DHT22;756;49.982;8.240;2022-09-16T08:01:20;16.50;69.40
1526;DHT22;756;49.982;8.240;2022-09-16T08:03:47;16.50;69.40
1526;DHT22;756;49.982;8.240;2022-09-16T08:06:17;16.50;68.90
1526;DHT22;756;49.982;8.240;2022-09-16T08:08:44;16.50;69.20
1526;DHT22;756;49.982;8.240;2022-09-16T08:11:14;16.60;67.70
1526;DHT22;756;49.982;8.240;2022-09-16T08:13:42;16.60;68.00
1526;DHT22;756;49.982;8.240;2022-09-16T08:16:14;16.60;68.60
1526;DHT22;756;49.982;8.240;2022-09-16T08:18:41;16.70;66.70
1526;DHT22;756;49.982;8.240;2022-09-16T08:21:11;16.70;68.00
1526;DHT22;756;49.982;8.240;2022-09-16T08:23:39;16.70;69.30
1526;DHT22;756;49.982;8.240;2022-09-16T08:26:06;16.80;66.50
1526;DHT22;756;49.982;8.240;2022-09-16T08:28:40;16.90;64.30
1526;DHT22;756;49.982;8.240;2022-09-16T08:31:27;16.90;64.50
1526;DHT22;756;49.982;8.240;2022-09-16T08:33:54;16.90;65.40
1526;DHT22;756;49.982;8.240;2022-09-16T08:36:23;16.90;66.50
1526;DHT22;756;49.982;8.240;2022-09-16T08:38:51;16.80;67.50
1526;DHT22;756;49.982;8.240;2022-09-16T08:47:30;17.00;66.90
1526;DHT22;756;49.982;8.240;2022-09-16T08:50:03;17.10;65.60
1526;DHT22;756;49.982;8.240;2022-09-16T08:52:33;17.10;65.70
1526;DHT22;756;49.982;8.240;2022-09-16T09:00:22;17.20;64.80
1526;DHT22;756;49.982;8.240;2022-09-16T09:05:32;17.20;64.90
1526;DHT22;756;49.982;8.240;2022-09-16T09:10:56;17.30;66.50
1526;DHT22;756;49.982;8.240;2022-09-16T09:22:03;17.40;65.60
1526;DHT22;756;49.982;8.240;2022-09-16T09:30:23;17.40;63.70
1526;DHT22;756;49.982;8.240;2022-09-16T09:33:12;17.30;64.30
1526;DHT22;756;49.982;8.240;2022-09-16T09:36:22;17.40;63.70
1526;DHT22;756;49.982;8.240;2022-09-16T09:39:14;17.40;63.00
1526;DHT22;756;49.982;8.240;2022-09-16T09:41:46;17.50;64.20
1526;DHT22;756;49.982;8.240;2022-09-16T09:46:56;17.40;64.60
1526;DHT22;756;49.982;8.240;2022-09-16T09:49:34;17.50;64.50
1526;DHT22;756;49.982;8.240;2022-09-16T09:52:33;17.50;63.80
1526;DHT22;756;49.982;8.240;2022-09-16T09:55:16;17.60;63.40
1526;DHT22;756;49.982;8.240;2022-09-16T09:58:20;17.50;63.60
1526;DHT22;756;49.982;8.240;2022-09-16T10:00:42;17.50;64.40
1526;DHT22;756;49.982;8.240;2022-09-16T10:03:16;17.40;65.40
1526;DHT22;756;49.982;8.240;2022-09-16T10:05:45;17.30;63.40
1526;DHT22;756;49.982;8.240;2022-09-16T10:08:15;17.30;64.10
1526;DHT22;756;49.982;8.240;2022-09-16T10:10:52;17.30;64.70
1526;DHT22;756;49.982;8.240;2022-09-16T10:13:21;17.30;65.10
1526;DHT22;756;49.982;8.240;2022-09-16T10:15:48;17.30;65.30
1526;DHT22;756;49.982;8.240;2022-09-16T10:18:26;17.20;66.00
1526;DHT22;756;49.982;8.240;2022-09-16T10:21:07;17.20;64.20
1526;DHT22;756;49.982;8.240;2022-09-16T10:23:35;17.20;64.40
1526;DHT22;756;49.982;8.240;2022-09-16T10:28:59;17.10;66.10
1526;DHT22;756;49.982;8.240;2022-09-16T10:31:36;17.10;66.30
1526;DHT22;756;49.982;8.240;2022-09-16T10:34:11;17.20;65.60
1526;DHT22;756;49.982;8.240;2022-09-16T10:36:38;17.10;66.20
1526;DHT22;756;49.982;8.240;2022-09-16T10:39:05;17.20;65.50
1526;DHT22;756;49.982;8.240;2022-09-16T10:41:39;17.30;64.90
1526;DHT22;756;49.982;8.240;2022-09-16T10:44:14;17.30;63.30
1526;DHT22;756;49.982;8.240;2022-09-16T10:46:59;17.40;64.00
1526;DHT22;756;49.982;8.240;2022-09-16T10:49:37;17.40;64.50
1526;DHT22;756;49.982;8.240;2022-09-16T10:52:25;17.40;65.40
1526;DHT22;756;49.982;8.240;2022-09-16T10:54:53;17.40;65.90
1526;DHT22;756;49.982;8.240;2022-09-16T10:57:31;17.30;66.20
1526;DHT22;756;49.982;8.240;2022-09-16T11:05:59;17.40;63.90
1526;DHT22;756;49.982;8.240;2022-09-16T11:14:59;17.50;63.70
1526;DHT22;756;49.982;8.240;2022-09-16T11:17:59;17.50;62.60
1526;DHT22;756;49.982;8.240;2022-09-16T11:28:16;17.50;65.00
1526;DHT22;756;49.982;8.240;2022-09-16T11:30:58;17.40;64.90
1526;DHT22;756;49.982;8.240;2022-09-16T11:33:40;17.40;64.90
1526;DHT22;756;49.982;8.240;2022-09-16T11:36:17;17.30;65.70
1526;DHT22;756;49.982;8.240;2022-09-16T11:49:54;17.40;66.50
1526;DHT22;756;49.982;8.240;2022-09-16T11:55:04;17.20;70.20
1526;DHT22;756;49.982;8.240;2022-09-16T11:57:38;17.00;72.60
1526;DHT22;756;49.982;8.240;2022-09-16T12:00:12;16.90;72.10
1526;DHT22;756;49.982;8.240;2022-09-16T12:05:45;16.80;72.10
1526;DHT22;756;49.982;8.240;2022-09-16T12:08:26;16.80;72.90
1526;DHT22;756;49.982;8.240;2022-09-16T12:13:51;16.90;72.10
1526;DHT22;756;49.982;8.240;2022-09-16T12:16:45;16.90;72.10
1526;DHT22;756;49.982;8.240;2022-09-16T12:19:42;17.00;71.30
1526;DHT22;756;49.982;8.240;2022-09-16T12:22:51;17.00;71.00
1526;DHT22;756;49.982;8.240;2022-09-16T12:25:33;16.90;70.60
1526;DHT22;756;49.982;8.240;2022-09-16T12:30:39;16.90;70.80
1526;DHT22;756;49.982;8.240;2022-09-16T12:33:17;16.90;70.60
1526;DHT22;756;49.982;8.240;2022-09-16T12:36:01;17.00;70.10
1526;DHT22;756;49.982;8.240;2022-09-16T12:38:29;17.10;69.80
1526;DHT22;756;49.982;8.240;2022-09-16T12:43:58;17.10;69.50
1526;DHT22;756;49.982;8.240;2022-09-16T12:52:14;16.90;70.30
1526;DHT22;756;49.982;8.240;2022-09-16T13:01:00;17.10;67.50
1526;DHT22;756;49.982;8.240;2022-09-16T13:03:29;17.00;68.50
1526;DHT22;756;49.982;8.240;2022-09-16T13:06:05;17.10;66.40
1526;DHT22;756;49.982;8.240;2022-09-16T13:08:33;17.20;66.40
1526;DHT22;756;49.982;8.240;2022-09-16T13:11:37;17.20;67.10
1526;DHT22;756;49.982;8.240;2022-09-16T13:14:27;17.30;66.40
1526;DHT22;756;49.982;8.240;2022-09-16T13:16:56;17.40;67.40
1526;DHT22;756;49.982;8.240;2022-09-16T13:19:51;17.50;67.90
1526;DHT22;756;49.982;8.240;2022-09-16T13:33:00;17.60;69.10
1526;DHT22;756;49.982;8.240;2022-09-16T13:37:58;17.60;68.90
1526;DHT22;756;49.982;8.240;2022-09-16T13:40:28;17.60;69.20
1526;DHT22;756;49.982;8.240;2022-09-16T13:43:29;17.60;68.40
1526;DHT22;756;49.982;8.240;2022-09-16T13:46:10;17.60;67.90
1526;DHT22;756;49.982;8.240;2022-09-16T13:49:11;17.60;68.70
1526;DHT22;756;49.982;8.240;2022-09-16T13:51:41;17.60;68.00
1526;DHT22;756;49.982;8.240;2022-09-16T13:54:28;17.70;68.00
1526;DHT22;756;49.982;8.240;2022-09-16T14:03:00;17.60;66.20
1526;DHT22;756;49.982;8.240;2022-09-16T14:05:49;17.60;66.60
1526;DHT22;756;49.982;8.240;2022-09-16T14:13:44;17.30;72.50
1526;DHT22;756;49.982;8.240;2022-09-16T14:18:59;16.80;74.30
1526;DHT22;756;49.982;8.240;2022-09-16T14:21:27;16.60;75.90
1526;DHT22;756;49.982;8.240;2022-09-16T14:23:53;16.40;78.20
1526;DHT22;756;49.982;8.240;2022-09-16T14:26:25;16.30;80.70
1526;DHT22;756;49.982;8.240;2022-09-16T14:29:01;16.20;84.00
1526;DHT22;756;49.982;8.240;2022-09-16T14:31:30;16.20;84.10
1526;DHT22;756;49.982;8.240;2022-09-16T14:34:00;16.20;84.00
1526;DHT22;756;49.982;8.240;2022-09-16T14:36:32;16.20;83.30
1526;DHT22;756;49.982;8.240;2022-09-16T14:39:13;16.20;82.30
1526;DHT22;756;49.982;8.240;2022-09-16T14:41:53;16.20;82.20
1526;DHT22;756;49.982;8.240;2022-09-16T14:47:22;16.20;82.60
1526;DHT22;756;49.982;8.240;2022-09-16T14:50:17;16.20;82.70
1526;DHT22;756;49.982;8.240;2022-09-16T14:52:55;16.20;81.80
1526;DHT22;756;49.982;8.240;2022-09-16T14:55:24;16.20;81.00
1526;DHT22;756;49.982;8.240;2022-09-16T14:57:51;16.20;81.10
1526;DHT22;756;49.982;8.240;2022-09-16T15:00:27;16.20;80.70
1526;DHT22;756;49.982;8.240;2022-09-16T15:03:10;16.20;79.20
1526;DHT22;756;49.982;8.240;2022-09-16T15:05:41;16.20;78.90
1526;DHT22;756;49.982;8.240;2022-09-16T15:10:52;16.20;79.00
1526;DHT22;756;49.982;8.240;2022-09-16T15:13:25;16.10;80.30
1526;DHT22;756;49.982;8.240;2022-09-16T15:15:56;16.10;77.70
1526;DHT22;756;49.982;8.240;2022-09-16T15:18:29;16.10;76.40
1526;DHT22;756;49.982;8.240;2022-09-16T15:21:21;16.10;72.20
1526;DHT22;756;49.982;8.240;2022-09-16T15:23:52;16.00;71.40
1526;DHT22;756;49.982;8.240;2022-09-16T15:26:20;15.80;71.70
1526;DHT22;756;49.982;8.240;2022-09-16T15:29:00;15.70;71.90
1526;DHT22;756;49.982;8.240;2022-09-16T15:33:57;15.50;74.00
1526;DHT22;756;49.982;8.240;2022-09-16T15:38:58;15.50;73.30
1526;DHT22;756;49.982;8.240;2022-09-16T15:41:25;15.40;74.60
1526;DHT22;756;49.982;8.240;2022-09-16T15:43:52;15.30;75.00
1526;DHT22;756;49.982;8.240;2022-09-16T15:46:22;15.30;75.70
1526;DHT22;756;49.982;8.240;2022-09-16T15:51:43;15.00;79.10
1526;DHT22;756;49.982;8.240;2022-09-16T15:54:19;14.90;80.50
1526;DHT22;756;49.982;8.240;2022-09-16T15:56:52;14.70;81.00
1526;DHT22;756;49.982;8.240;2022-09-16T15:59:28;14.50;82.60
1526;DHT22;756;49.982;8.240;2022-09-16T16:01:57;14.50;83.40
1526;DHT22;756;49.982;8.240;2022-09-16T16:04:29;14.40;84.50
1526;DHT22;756;49.982;8.240;2022-09-16T16:07:00;14.40;85.20
1526;DHT22;756;49.982;8.240;2022-09-16T16:12:11;14.40;85.20
1526;DHT22;756;49.982;8.240;2022-09-16T16:14:39;14.40;85.10
1526;DHT22;756;49.982;8.240;2022-09-16T16:17:12;14.40;84.40
1526;DHT22;756;49.982;8.240;2022-09-16T16:19:45;14.40;84.40
1526;DHT22;756;49.982;8.240;2022-09-16T16:22:13;14.30;84.70
1526;DHT22;756;49.982;8.240;2022-09-16T16:24:41;14.40;84.80
1526;DHT22;756;49.982;8.240;2022-09-16T16:27:08;14.40;84.60
1526;DHT22;756;49.982;8.240;2022-09-16T16:29:35;14.40;84.40
1526;DHT22;756;49.982;8.240;2022-09-16T16:32:12;14.30;85.80
1526;DHT22;756;49.982;8.240;2022-09-16T16:34:44;14.30;85.50
1526;DHT22;756;49.982;8.240;2022-09-16T16:37:12;14.30;85.40
1526;DHT22;756;49.982;8.240;2022-09-16T16:40:00;14.30;85.10
1526;DHT22;756;49.982;8.240;2022-09-16T16:42:27;14.30;84.40
1526;DHT22;756;49.982;8.240;2022-09-16T16:44:54;14.30;84.30
1526;DHT22;756;49.982;8.240;2022-09-16T16:47:22;14.30;83.20
1526;DHT22;756;49.982;8.240;2022-09-16T16:49:49;14.40;82.80
1526;DHT22;756;49.982;8.240;2022-09-16T16:52:17;14.40;82.70
1526;DHT22;756;49.982;8.240;2022-09-16T16:54:43;14.40;82.30
1526;DHT22;756;49.982;8.240;2022-09-16T16:57:11;14.40;81.90
1526;DHT22;756;49.982;8.240;2022-09-16T16:59:38;14.40;82.20
1526;DHT22;756;49.982;8.240;2022-09-16T17:02:04;14.40;82.60
1526;DHT22;756;49.982;8.240;2022-09-16T17:04:31;14.30;83.30
1526;DHT22;756;49.982;8.240;2022-09-16T17:06:58;14.30;82.70
1526;DHT22;756;49.982;8.240;2022-09-16T17:09:45;14.30;82.70
1526;DHT22;756;49.982;8.240;2022-09-16T17:12:11;14.30;83.60
1526;DHT22;756;49.982;8.240;2022-09-16T17:14:38;14.30;83.40
1526;DHT22;756;49.982;8.240;2022-09-16T17:17:05;14.30;83.40
1526;DHT22;756;49.982;8.240;2022-09-16T17:19:32;14.20;83.10
1526;DHT22;756;49.982;8.240;2022-09-16T17:21:58;14.30;82.80
1526;DHT22;756;49.982;8.240;2022-09-16T17:24:25;14.30;82.20
1526;DHT22;756;49.982;8.240;2022-09-16T17:26:51;14.30;81.80
1526;DHT22;756;49.982;8.240;2022-09-16T17:29:18;14.30;81.40
1526;DHT22;756;49.982;8.240;2022-09-16T17:31:45;14.20;80.30
1526;DHT22;756;49.982;8.240;2022-09-16T17:34:13;14.20;80.20
1526;DHT22;756;49.982;8.240;2022-09-16T17:36:45;14.20;80.00
1526;DHT22;756;49.982;8.240;2022-09-16T17:39:15;14.20;79.50
1526;DHT22;756;49.982;8.240;2022-09-16T17:41:43;14.20;79.80
1526;DHT22;756;49.982;8.240;2022-09-16T17:44:12;14.10;78.70
1526;DHT22;756;49.982;8.240;2022-09-16T17:46:40;14.10;79.10
1526;DHT22;756;49.982;8.240;2022-09-16T17:49:18;14.00;79.80
1526;DHT22;756;49.982;8.240;2022-09-16T17:51:47;14.00;79.20
1526;DHT22;756;49.982;8.240;2022-09-16T17:54:14;14.10;79.00
1526;DHT22;756;49.982;8.240;2022-09-16T17:56:41;14.10;78.70
1526;DHT22;756;49.982;8.240;2022-09-16T17:59:09;14.10;79.00
1526;DHT22;756;49.982;8.240;2022-09-16T18:01:36;14.10;78.80
1526;DHT22;756;49.982;8.240;2022-09-16T18:04:03;14.10;78.90
1526;DHT22;756;49.982;8.240;2022-09-16T18:06:32;14.10;78.70
1526;DHT22;756;49.982;8.240;2022-09-16T18:09:02;14.00;79.30
1526;DHT22;756;49.982;8.240;2022-09-16T18:11:30;14.00;80.10
1526;DHT22;756;49.982;8.240;2022-09-16T18:13:58;14.00;79.50
1526;DHT22;756;49.982;8.240;2022-09-16T18:16:26;14.00;79.70
1526;DHT22;756;49.982;8.240;2022-09-16T18:18:56;14.00;80.00
1526;DHT22;756;49.982;8.240;2022-09-16T18:21:24;14.00;80.10
1526;DHT22;756;49.982;8.240;2022-09-16T18:23:58;13.90;81.20
1526;DHT22;756;49.982;8.240;2022-09-16T18:26:26;13.90;81.40
1526;DHT22;756;49.982;8.240;2022-09-16T18:28:53;13.90;80.20
1526;DHT22;756;49.982;8.240;2022-09-16T18:31:45;13.90;79.10
1526;DHT22;756;49.982;8.240;2022-09-16T18:34:13;14.00;78.90
1526;DHT22;756;49.982;8.240;2022-09-16T18:36:40;13.90;78.90
1526;DHT22;756;49.982;8.240;2022-09-16T18:39:11;13.90;78.60
1526;DHT22;756;49.982;8.240;2022-09-16T18:41:40;13.80;79.40
1526;DHT22;756;49.982;8.240;2022-09-16T18:44:15;13.90;78.90
1526;DHT22;756;49.982;8.240;2022-09-16T18:46:42;13.90;78.90
1526;DHT22;756;49.982;8.240;2022-09-16T18:49:11;13.90;78.50
1526;DHT22;756;49.982;8.240;2022-09-16T18:51:49;13.90;78.30
1526;DHT22;756;49.982;8.240;2022-09-16T18:54:23;13.90;78.70
1526;DHT22;756;49.982;8.240;2022-09-16T18:56:52;13.90;78.10
1526;DHT22;756;49.982;8.240;2022-09-16T18:59:22;13.90;78.50
1526;DHT22;756;49.982;8.240;2022-09-16T19:01:51;13.90;78.60
1526;DHT22;756;49.982;8.240;2022-09-16T19:04:22;13.80;78.50
1526;DHT22;756;49.982;8.240;2022-09-16T19:06:51;13.80;78.80
1526;DHT22;756;49.982;8.240;2022-09-16T19:09:20;13.60;80.00
1526;DHT22;756;49.982;8.240;2022-09-16T19:11:47;13.60;79.90
1526;DHT22;756;49.982;8.240;2022-09-16T19:14:15;13.70;79.40
1526;DHT22;756;49.982;8.240;2022-09-16T19:16:43;13.70;79.10
1526;DHT22;756;49.982;8.240;2022-09-16T19:19:12;13.70;79.20
1526;DHT22;756;49.982;8.240;2022-09-16T19:21:40;13.70;79.00
1526;DHT22;756;49.982;8.240;2022-09-16T19:24:11;13.70;78.50
1526;DHT22;756;49.982;8.240;2022-09-16T19:26:40;13.70;78.60
1526;DHT22;756;49.982;8.240;2022-09-16T19:29:08;13.60;79.00
1526;DHT22;756;49.982;8.240;2022-09-16T19:31:37;13.70;79.00
1526;DHT22;756;49.982;8.240;2022-09-16T19:34:05;13.70;78.70
1526;DHT22;756;49.982;8.240;2022-09-16T19:36:34;13.70;78.50
1526;DHT22;756;49.982;8.240;2022-09-16T19:39:02;13.60;78.50
1526;DHT22;756;49.982;8.240;2022-09-16T19:41:34;13.70;78.90
1526;DHT22;756;49.982;8.240;2022-09-16T19:44:03;13.60;78.90
1526;DHT22;756;49.982;8.240;2022-09-16T19:46:35;13.60;79.20
1526;DHT22;756;49.982;8.240;2022-09-16T19:49:03;13.50;79.30
1526;DHT22;756;49.982;8.240;2022-09-16T19:51:30;13.50;79.00